Saint Paul, MN (55101)

2:55 AM CDT on July 28, 2016 (GMT -0500)
Maplecrest - Third Acre Wood | | Change Station

Elev 909 ft 45.01 °N, 93.07 °W | Updated 13 seconds ago

Overcast
Overcast
66.2 °F
Feels Like 66.2 °F
N
0.0
Wind Variable Wind from NE
Gusts 0.0 mph

Today
High -- | Low -- °F
--% Chance of Precip.
Yesterday
High -- | Low -- °F
Precip. -- in
Pressure 29.99 in
Visibility 9.0 miles
Clouds Mostly Cloudy 900 ft
Overcast 1300 ft
Dew Point 65 °F
Humidity 97%
Rainfall 0.00 in
Snow Depth Not available.
5:53 AM 8:43 PM
Waning Crescent, 34% visible
SPECI KSTP 280727Z AUTO 35009KT 9SM BKN009 OVC013 19/18 A2999 RMK AO2 T01940178
Pressure 29.99 in
Visibility 9.0 miles
Clouds Mostly Cloudy 900 ft
Overcast 1300 ft
Dew Point 65 °F
Humidity 97%
Rainfall 0.00 in
Snow Depth Not available.
5:53 AM 8:43 PM
Waning Crescent, 34% visible
SPECI KSTP 280727Z AUTO 35009KT 9SM BKN009 OVC013 19/18 A2999 RMK AO2 T01940178

10-Day Weather Forecast

Almanac

Astronomy

Jul. 28, 2016 Rise Set
Actual Time
Civil Twilight
Nautical Twilight
Astronomical Twilight
Moon
Length of Visible Light
Length of Day
Tomorrow will be .
, % of the Moon is Illuminated

Today's Extremes

State Highs State Lows

Community

WunderPhotos

Upload Photos

1,928,070 photos uploaded!

WunderBlog® & News

Nearby

Air Quality

  Air Quality AQ Index Pollutant
Not available.

Snow Depth

Station Depth Elevation

Earthquake Activity

City Distance Mag. Time & Date
Minimum magnitude displayed is 2.5.

Coastal Water Temperatures

Place Temperature

Stations

Nearby Weather Stations

Station Location Temp. Windchill Dew Point Humidity Wind Precip. Elev Updated Type
                   

Watches & Warnings

There are currently no watches in effect.